createdAt,value
2022-11-07T00:00:00.098Z,5.60
2022-11-07T00:02:26.550Z,5.32
2022-11-07T00:04:53.123Z,7.70
2022-11-07T00:07:19.598Z,5.40
2022-11-07T00:09:46.108Z,5.63
2022-11-07T00:12:12.578Z,5.55
2022-11-07T00:14:39.058Z,6.07
2022-11-07T00:17:05.599Z,7.32
2022-11-07T00:19:32.292Z,5.22
2022-11-07T00:21:58.822Z,4.80
2022-11-07T00:24:25.490Z,6.28
2022-11-07T00:26:52.171Z,5.32
2022-11-07T00:29:19.561Z,6.38
2022-11-07T00:31:46.505Z,6.43
2022-11-07T00:34:13.068Z,6.13
2022-11-07T00:36:39.583Z,6.13
2022-11-07T00:39:06.688Z,8.48
2022-11-07T00:41:33.232Z,6.43
2022-11-07T00:43:59.842Z,4.72
2022-11-07T00:46:26.413Z,6.30
2022-11-07T00:48:52.892Z,5.32
2022-11-07T00:51:21.129Z,5.78
2022-11-07T00:53:47.673Z,4.35
2022-11-07T00:56:15.191Z,5.28
2022-11-07T00:58:42.775Z,7.03
2022-11-07T01:01:10.949Z,4.88
2022-11-07T01:03:55.879Z,5.93
2022-11-07T01:06:22.770Z,5.57
2022-11-07T01:08:49.272Z,5.50
2022-11-07T01:11:15.801Z,5.85
2022-11-07T01:13:42.361Z,4.97
2022-11-07T01:16:10.124Z,4.88
2022-11-07T01:18:36.671Z,4.90
2022-11-07T01:21:07.119Z,4.13
2022-11-07T01:23:36.623Z,5.13
2022-11-07T01:26:06.713Z,4.22
2022-11-07T01:28:33.451Z,4.65
2022-11-07T01:31:02.960Z,4.45
2022-11-07T01:33:29.803Z,8.10
2022-11-07T01:36:04.944Z,5.18
2022-11-07T01:38:32.422Z,6.25
2022-11-07T01:41:17.383Z,5.53
2022-11-07T01:43:58.331Z,3.42
2022-11-07T01:46:26.732Z,4.47
2022-11-07T01:48:56.631Z,4.30
2022-11-07T01:51:23.502Z,6.40
2022-11-07T01:53:50.484Z,3.15
2022-11-07T01:56:18.192Z,4.70
2022-11-07T01:58:47.161Z,4.47
2022-11-07T02:01:14.415Z,6.57
2022-11-07T02:03:41.143Z,2.92
2022-11-07T02:06:10.642Z,3.47
2022-11-07T02:08:39.113Z,7.20
2022-11-07T02:11:06.082Z,4.50
2022-11-07T02:13:32.705Z,4.35
2022-11-07T02:15:59.992Z,7.10
2022-11-07T02:18:27.412Z,5.22
2022-11-07T02:20:55.659Z,4.43
2022-11-07T02:23:30.348Z,4.20
2022-11-07T02:25:56.866Z,3.85
2022-11-07T02:28:24.072Z,4.72
2022-11-07T02:30:50.600Z,3.50
2022-11-07T02:33:20.833Z,3.85
2022-11-07T02:35:48.799Z,4.20
2022-11-07T02:38:22.992Z,4.95
2022-11-07T02:40:51.241Z,4.78
2022-11-07T02:43:19.651Z,3.10
2022-11-07T02:45:48.051Z,3.40
2022-11-07T02:48:14.613Z,3.50
2022-11-07T02:50:41.511Z,3.70
2022-11-07T02:53:08.008Z,4.97
2022-11-07T02:55:34.551Z,4.30
2022-11-07T02:58:01.072Z,2.45
2022-11-07T03:00:27.611Z,4.25
2022-11-07T03:02:54.488Z,3.10
2022-11-07T03:05:21.419Z,3.78
2022-11-07T03:07:48.641Z,3.03
2022-11-07T03:10:15.831Z,5.90
2022-11-07T03:12:42.524Z,3.30
2022-11-07T03:15:09.766Z,6.05
2022-11-07T03:17:36.407Z,4.15
2022-11-07T03:20:03.016Z,3.58
2022-11-07T03:22:29.523Z,4.68
2022-11-07T03:24:55.961Z,3.13
2022-11-07T03:27:22.502Z,2.42
2022-11-07T03:29:49.443Z,3.28
2022-11-07T03:32:15.992Z,3.55
2022-11-07T03:34:42.453Z,4.85
2022-11-07T03:37:09.093Z,3.85
2022-11-07T03:39:35.571Z,2.83
2022-11-07T03:42:02.109Z,3.75
2022-11-07T03:44:28.622Z,3.83
2022-11-07T03:46:55.603Z,3.55
2022-11-07T03:49:22.142Z,2.70
2022-11-07T03:51:48.632Z,7.82
2022-11-07T03:54:15.273Z,4.07
2022-11-07T03:56:41.771Z,5.13
2022-11-07T03:59:08.270Z,2.45
2022-11-07T04:01:35.058Z,2.88
2022-11-07T04:04:01.782Z,3.97
2022-11-07T04:06:28.235Z,1.70
2022-11-07T04:08:54.660Z,3.17
2022-11-07T04:11:39.649Z,6.03
2022-11-07T04:14:24.940Z,4.10
2022-11-07T04:17:09.748Z,2.50
2022-11-07T04:19:36.289Z,3.05
2022-11-07T04:22:02.742Z,5.85
2022-11-07T04:24:29.223Z,2.38
2022-11-07T04:27:14.337Z,2.83
2022-11-07T04:29:40.847Z,2.22
2022-11-07T04:32:07.370Z,3.60
2022-11-07T04:34:33.853Z,2.50
2022-11-07T04:37:00.276Z,5.45
2022-11-07T04:39:26.891Z,2.72
2022-11-07T04:41:53.347Z,2.45
2022-11-07T04:44:19.939Z,2.30
2022-11-07T04:46:46.402Z,2.50
2022-11-07T04:49:15.246Z,2.40
2022-11-07T04:51:42.768Z,2.20
2022-11-07T04:54:13.648Z,2.22
2022-11-07T04:56:40.478Z,2.78
2022-11-07T04:59:07.097Z,2.83
2022-11-07T05:01:33.799Z,2.88
2022-11-07T05:04:00.359Z,2.50
2022-11-07T05:06:27.043Z,2.13
2022-11-07T05:08:53.606Z,2.80
2022-11-07T05:11:20.076Z,4.25
2022-11-07T05:13:46.623Z,2.10
2022-11-07T05:16:15.184Z,2.55
2022-11-07T05:18:41.717Z,2.10
2022-11-07T05:21:08.369Z,2.60
2022-11-07T05:23:34.873Z,2.05
2022-11-07T05:26:01.415Z,2.10
2022-11-07T05:28:37.069Z,2.45
2022-11-07T05:31:06.376Z,2.78
2022-11-07T05:33:32.871Z,2.05
2022-11-07T05:36:08.422Z,2.30
2022-11-07T05:38:34.816Z,2.83
2022-11-07T05:41:04.502Z,1.92
2022-11-07T05:43:31.061Z,3.00
2022-11-07T05:46:01.227Z,2.50
2022-11-07T05:48:27.745Z,2.20
2022-11-07T05:50:54.287Z,1.80
2022-11-07T05:53:21.558Z,2.22
2022-11-07T05:55:48.160Z,2.35
2022-11-07T05:58:14.638Z,2.30
2022-11-07T06:00:41.188Z,1.80
2022-11-07T06:03:08.237Z,2.20
2022-11-07T06:05:34.783Z,2.13
2022-11-07T06:08:01.248Z,1.60
2022-11-07T06:10:27.783Z,4.28
2022-11-07T06:13:00.809Z,2.88
2022-11-07T06:15:28.041Z,3.33
2022-11-07T06:17:54.857Z,1.90
2022-11-07T06:20:22.450Z,2.25
2022-11-07T06:22:48.987Z,2.60
2022-11-07T06:25:15.569Z,2.83
2022-11-07T06:27:41.988Z,2.42
2022-11-07T06:30:08.723Z,2.80
2022-11-07T06:32:35.233Z,3.15
2022-11-07T06:35:01.734Z,2.85
2022-11-07T06:37:28.361Z,2.92
2022-11-07T06:39:54.917Z,2.60
2022-11-07T06:42:21.515Z,3.58
2022-11-07T06:44:48.128Z,3.53
2022-11-07T06:47:14.556Z,5.43
2022-11-07T06:49:41.081Z,3.75
2022-11-07T06:52:07.561Z,4.88
2022-11-07T06:54:34.102Z,6.50
2022-11-07T06:57:00.530Z,9.55
2022-11-07T06:59:26.997Z,4.70
2022-11-07T07:01:53.501Z,2.92
2022-11-07T07:04:20.074Z,7.30
2022-11-07T07:06:46.498Z,10.88
2022-11-07T07:09:13.007Z,7.78
2022-11-07T07:11:39.695Z,13.32
2022-11-07T07:14:11.230Z,9.23
2022-11-07T07:16:38.213Z,9.48
2022-11-07T07:19:05.052Z,8.80
2022-11-07T07:21:31.572Z,8.40
2022-11-07T07:23:58.016Z,7.45
2022-11-07T07:26:24.546Z,8.02
2022-11-07T07:28:50.997Z,6.47
2022-11-07T07:31:17.516Z,7.40
2022-11-07T07:33:44.746Z,7.97
2022-11-07T07:36:15.277Z,7.65
2022-11-07T07:38:44.505Z,8.18
2022-11-07T07:41:10.982Z,10.23
2022-11-07T07:43:37.512Z,7.90
2022-11-07T07:46:05.503Z,5.57
2022-11-07T07:48:32.002Z,10.65
2022-11-07T07:50:58.800Z,12.10
2022-11-07T07:53:25.330Z,9.25
2022-11-07T07:55:56.898Z,4.82
2022-11-07T07:58:23.468Z,11.95
2022-11-07T08:00:51.662Z,4.43
2022-11-07T08:03:18.675Z,8.43
2022-11-07T08:05:45.489Z,7.53
2022-11-07T08:08:11.937Z,21.17
2022-11-07T08:10:43.109Z,12.30
2022-11-07T08:13:09.900Z,4.72
2022-11-07T08:15:36.389Z,7.00
2022-11-07T08:18:03.493Z,7.20
2022-11-07T08:20:30.105Z,9.00
2022-11-07T08:23:09.859Z,9.00
2022-11-07T08:25:41.385Z,9.68
2022-11-07T08:28:08.703Z,8.48
2022-11-07T08:30:35.549Z,7.75
2022-11-07T08:33:03.411Z,8.75
2022-11-07T08:35:30.638Z,7.55
2022-11-07T08:37:57.634Z,6.88
2022-11-07T08:40:24.128Z,6.63
2022-11-07T08:42:50.763Z,11.02
2022-11-07T08:45:17.358Z,11.52
2022-11-07T08:47:43.868Z,9.73
2022-11-07T08:50:10.437Z,9.70
2022-11-07T08:52:36.924Z,14.77
2022-11-07T08:55:04.130Z,11.20
2022-11-07T08:57:30.644Z,10.00
2022-11-07T08:59:57.144Z,6.43
2022-11-07T09:05:10.114Z,13.48
2022-11-07T09:07:38.134Z,8.05
2022-11-07T09:10:04.724Z,10.13
2022-11-07T09:12:31.175Z,9.23
2022-11-07T09:14:57.691Z,7.55
2022-11-07T09:17:24.122Z,6.40
2022-11-07T09:19:50.570Z,7.47
2022-11-07T09:22:17.109Z,8.35
2022-11-07T09:24:43.859Z,13.15
2022-11-07T09:27:10.334Z,10.38
2022-11-07T09:29:36.827Z,6.53
2022-11-07T09:32:23.403Z,10.40
2022-11-07T09:34:55.975Z,8.15
2022-11-07T09:37:24.787Z,11.15
2022-11-07T09:39:51.316Z,5.68
2022-11-07T09:42:17.786Z,4.03
2022-11-07T09:44:50.277Z,7.63
2022-11-07T09:47:19.273Z,10.48
2022-11-07T09:49:48.824Z,4.78
2022-11-07T09:52:18.105Z,7.35
2022-11-07T09:54:51.668Z,4.13
2022-11-07T09:57:18.926Z,4.90
2022-11-07T10:00:00.377Z,5.85
2022-11-07T10:02:30.226Z,5.32
2022-11-07T10:04:58.535Z,4.28
2022-11-07T10:07:25.016Z,9.00
2022-11-07T10:10:01.169Z,5.30
2022-11-07T10:12:43.200Z,5.07
2022-11-07T10:15:11.804Z,4.65
2022-11-07T10:17:38.296Z,5.80
2022-11-07T10:20:25.372Z,3.63
2022-11-07T10:22:54.888Z,8.10
2022-11-07T10:25:27.785Z,5.85
2022-11-07T10:28:01.605Z,5.35
2022-11-07T10:30:28.389Z,4.15
2022-11-07T10:33:13.971Z,3.53
2022-11-07T10:35:45.554Z,4.72
2022-11-07T10:38:21.845Z,4.38
2022-11-07T10:40:50.175Z,5.97
2022-11-07T10:43:20.725Z,4.72
2022-11-07T10:45:47.404Z,4.93
2022-11-07T10:48:14.704Z,9.13
2022-11-07T10:50:50.375Z,7.45
2022-11-07T10:53:18.935Z,5.80
2022-11-07T10:55:47.611Z,9.23
2022-11-07T10:58:40.267Z,20.73
2022-11-07T11:01:09.553Z,3.97
2022-11-07T11:03:45.482Z,5.97
2022-11-07T11:06:15.085Z,10.07
2022-11-07T11:08:41.536Z,6.93
2022-11-07T11:11:24.057Z,4.35
2022-11-07T11:14:00.728Z,11.40
2022-11-07T11:16:28.216Z,12.63
2022-11-07T11:18:56.134Z,4.57
2022-11-07T11:21:22.807Z,4.65
2022-11-07T11:23:49.320Z,7.03
2022-11-07T11:26:20.575Z,7.60
2022-11-07T11:28:49.986Z,9.35
2022-11-07T11:31:33.118Z,11.10
2022-11-07T11:34:16.977Z,14.93
2022-11-07T11:36:47.040Z,17.35
2022-11-07T11:39:26.316Z,139.25
2022-11-07T11:41:59.336Z,54.70
2022-11-07T11:44:39.767Z,37.80
2022-11-07T11:47:14.324Z,26.70
2022-11-07T11:49:45.397Z,24.35
2022-11-07T11:52:16.945Z,22.30
2022-11-07T11:54:44.035Z,18.10
2022-11-07T11:57:13.216Z,20.05
2022-11-07T11:59:57.846Z,17.13
2022-11-07T12:02:41.294Z,18.85
2022-11-07T12:05:26.866Z,14.05
2022-11-07T12:08:00.480Z,14.75
2022-11-07T12:10:56.255Z,12.13
2022-11-07T12:13:37.585Z,12.57
2022-11-07T12:16:26.676Z,14.35
2022-11-07T12:19:01.549Z,11.68
2022-11-07T12:21:32.812Z,12.10
2022-11-07T12:24:10.126Z,10.50
2022-11-07T12:26:41.510Z,7.63
2022-11-07T12:29:07.917Z,7.95
2022-11-07T12:32:03.835Z,8.75
2022-11-07T12:34:48.720Z,8.68
2022-11-07T12:37:27.864Z,5.10
2022-11-07T12:40:17.554Z,7.32
2022-11-07T12:43:00.713Z,8.65
2022-11-07T12:45:30.014Z,6.88
2022-11-07T12:47:59.817Z,7.07
2022-11-07T12:50:32.423Z,5.15
2022-11-07T12:53:19.598Z,5.22
2022-11-07T12:56:02.832Z,4.22
2022-11-07T12:58:31.383Z,4.68
2022-11-07T13:00:58.243Z,4.15
2022-11-07T13:03:24.773Z,4.35
2022-11-07T13:06:03.183Z,4.97
2022-11-07T13:08:45.923Z,3.35
2022-11-07T13:11:22.625Z,4.88
2022-11-07T13:14:07.511Z,5.00
2022-11-07T13:16:34.851Z,5.68
2022-11-07T13:19:11.181Z,3.53
2022-11-07T13:21:41.863Z,3.20
2022-11-07T13:24:08.451Z,3.17
2022-11-07T13:26:50.116Z,3.03
2022-11-07T13:29:22.792Z,2.45
2022-11-07T13:31:53.481Z,2.13
2022-11-07T13:34:19.997Z,2.55
2022-11-07T13:36:48.283Z,3.40
2022-11-07T13:39:15.741Z,2.83
2022-11-07T13:41:44.585Z,2.35
2022-11-07T13:44:17.626Z,2.47
2022-11-07T13:46:44.184Z,2.72
2022-11-07T13:49:15.863Z,2.55
2022-11-07T13:51:44.376Z,2.08
2022-11-07T13:54:28.986Z,2.17
2022-11-07T13:57:06.259Z,2.08
2022-11-07T13:59:36.683Z,2.38
2022-11-07T14:02:04.102Z,2.20
2022-11-07T14:04:32.098Z,1.85
2022-11-07T14:07:03.301Z,4.63
2022-11-07T14:09:31.842Z,2.58
2022-11-07T14:11:58.419Z,1.77
2022-11-07T14:14:26.043Z,3.00
2022-11-07T14:16:56.258Z,2.08
2022-11-07T14:19:27.305Z,3.67
2022-11-07T14:21:55.135Z,3.45
2022-11-07T14:24:34.499Z,1.88
2022-11-07T14:27:27.731Z,3.20
2022-11-07T14:29:55.129Z,1.90
2022-11-07T14:32:21.583Z,1.40
2022-11-07T14:34:48.974Z,1.73
2022-11-07T14:37:17.325Z,2.30
2022-11-07T14:39:43.977Z,1.70
2022-11-07T14:42:13.786Z,2.60
2022-11-07T14:44:53.861Z,2.38
2022-11-07T14:47:27.035Z,1.27
2022-11-07T14:49:54.327Z,1.58
2022-11-07T14:52:23.188Z,3.75
2022-11-07T14:54:50.945Z,1.48
2022-11-07T14:57:18.195Z,1.73
2022-11-07T14:59:44.759Z,1.10
2022-11-07T15:02:11.320Z,1.50
2022-11-07T15:04:44.215Z,2.45
2022-11-07T15:07:10.667Z,1.50
2022-11-07T15:09:37.355Z,1.67
2022-11-07T15:12:07.354Z,2.20
2022-11-07T15:14:35.181Z,2.65
2022-11-07T15:17:04.379Z,2.50
2022-11-07T15:19:32.573Z,2.40
2022-11-07T15:22:01.052Z,2.65
2022-11-07T15:24:41.419Z,2.67
2022-11-07T15:27:14.024Z,2.40
2022-11-07T15:29:48.929Z,3.53
2022-11-07T15:32:20.354Z,5.63
2022-11-07T15:35:22.947Z,2.95
2022-11-07T15:37:35.396Z,2.58
2022-11-07T15:40:01.854Z,4.95
2022-11-07T15:42:28.436Z,2.15
2022-11-07T15:44:54.947Z,3.30
2022-11-07T15:47:22.158Z,2.95
2022-11-07T15:49:49.027Z,2.45
2022-11-07T15:52:15.614Z,5.28
2022-11-07T15:54:42.099Z,3.13
2022-11-07T15:57:08.987Z,18.23
2022-11-07T15:59:36.769Z,18.85
2022-11-07T16:02:03.785Z,54.72
2022-11-07T16:04:30.594Z,78.65
2022-11-07T16:06:57.177Z,143.80
2022-11-07T16:09:24.203Z,138.43
2022-11-07T16:11:50.735Z,66.38
2022-11-07T16:17:05.062Z,29.35
2022-11-07T16:19:31.594Z,26.15
2022-11-07T16:21:58.084Z,24.77
2022-11-07T16:24:24.559Z,15.80
2022-11-07T16:26:51.438Z,14.95
2022-11-07T16:29:17.928Z,13.85
2022-11-07T16:31:44.388Z,15.00
2022-11-07T16:34:11.111Z,13.00
2022-11-07T16:36:39.390Z,12.50
2022-11-07T16:39:09.139Z,13.70
2022-11-07T16:41:36.219Z,11.05
2022-11-07T16:44:02.787Z,15.32
2022-11-07T16:46:34.319Z,10.40
2022-11-07T16:49:05.388Z,10.25
2022-11-07T16:51:33.070Z,11.10
2022-11-07T16:53:59.497Z,8.38
2022-11-07T16:56:28.980Z,7.60
2022-11-07T16:58:55.580Z,6.60
2022-11-07T17:01:23.361Z,7.57
2022-11-07T17:03:50.028Z,8.27
2022-11-07T17:06:18.708Z,8.13
2022-11-07T17:08:45.498Z,5.60
2022-11-07T17:11:16.313Z,6.60
2022-11-07T17:13:43.128Z,6.93
2022-11-07T17:16:20.888Z,6.57
2022-11-07T17:18:49.026Z,7.13
2022-11-07T17:21:24.789Z,7.18
2022-11-07T17:23:52.102Z,8.15
2022-11-07T17:26:20.685Z,8.45
2022-11-07T17:28:47.971Z,9.23
2022-11-07T17:31:14.591Z,6.28
2022-11-07T17:33:41.161Z,3.92
2022-11-07T17:36:16.251Z,6.63
2022-11-07T17:38:42.813Z,4.63
2022-11-07T17:41:19.870Z,4.40
2022-11-07T17:43:46.971Z,6.07
2022-11-07T17:46:18.030Z,5.50
2022-11-07T17:48:47.296Z,2.83
2022-11-07T17:51:14.120Z,4.38
2022-11-07T17:53:40.731Z,3.15
2022-11-07T17:56:07.381Z,4.32
2022-11-07T17:58:33.816Z,4.63
2022-11-07T18:01:00.373Z,2.40
2022-11-07T18:03:27.076Z,3.47
2022-11-07T18:05:53.534Z,5.78
2022-11-07T18:08:38.397Z,6.47
2022-11-07T18:11:06.864Z,4.40
2022-11-07T18:13:33.383Z,4.03
2022-11-07T18:16:00.100Z,2.83
2022-11-07T18:18:27.164Z,3.70
2022-11-07T18:20:53.645Z,3.35
2022-11-07T18:23:20.080Z,4.30
2022-11-07T18:25:46.632Z,3.50
2022-11-07T18:28:13.199Z,3.95
2022-11-07T18:30:39.718Z,4.63
2022-11-07T18:33:06.299Z,4.47
2022-11-07T18:35:32.748Z,5.93
2022-11-07T18:37:59.193Z,5.70
2022-11-07T18:40:25.687Z,5.75
2022-11-07T18:42:52.164Z,4.32
2022-11-07T18:45:18.734Z,9.25
2022-11-07T18:47:45.229Z,4.70
2022-11-07T18:50:11.834Z,17.95
2022-11-07T18:52:38.332Z,3.38
2022-11-07T18:55:04.904Z,7.07
2022-11-07T18:57:31.378Z,5.43
2022-11-07T18:59:57.819Z,4.10
2022-11-07T19:02:24.388Z,4.85
2022-11-07T19:04:51.499Z,3.67
2022-11-07T19:07:18.035Z,5.18
2022-11-07T19:09:44.657Z,4.47
2022-11-07T19:12:11.105Z,4.68
2022-11-07T19:14:37.668Z,4.55
2022-11-07T19:17:04.895Z,3.67
2022-11-07T19:19:32.199Z,4.30
2022-11-07T19:21:58.676Z,3.35
2022-11-07T19:24:25.311Z,6.43
2022-11-07T19:26:51.786Z,3.35
2022-11-07T19:29:18.360Z,6.22
2022-11-07T19:31:44.945Z,3.45
2022-11-07T19:34:11.483Z,4.38
2022-11-07T19:36:38.114Z,17.55
2022-11-07T19:39:04.917Z,22.80
2022-11-07T19:41:31.470Z,10.45
2022-11-07T19:44:01.750Z,9.73
2022-11-07T19:46:28.286Z,5.90
2022-11-07T19:48:55.126Z,4.32
2022-11-07T19:51:23.090Z,5.55
2022-11-07T19:53:57.309Z,7.70
2022-11-07T19:56:24.972Z,6.57
2022-11-07T19:58:51.495Z,7.60
2022-11-07T20:01:19.416Z,7.82
2022-11-07T20:03:50.315Z,9.05
2022-11-07T20:06:17.912Z,7.03
2022-11-07T20:08:46.224Z,3.88
2022-11-07T20:11:14.604Z,5.05
2022-11-07T20:13:41.382Z,6.35
2022-11-07T20:16:09.236Z,8.68
2022-11-07T20:18:40.103Z,6.75
2022-11-07T20:21:12.999Z,6.75
2022-11-07T20:23:39.989Z,9.93
2022-11-07T20:26:07.937Z,5.78
2022-11-07T20:28:34.958Z,3.97
2022-11-07T20:31:01.507Z,8.52
2022-11-07T20:33:27.987Z,6.07
2022-11-07T20:36:01.371Z,5.95
2022-11-07T20:38:28.918Z,5.70
2022-11-07T20:40:59.911Z,9.00
2022-11-07T20:43:27.152Z,5.13
2022-11-07T20:46:03.651Z,3.00
2022-11-07T20:48:35.212Z,4.57
2022-11-07T20:51:08.391Z,3.47
2022-11-07T20:53:35.568Z,4.03
2022-11-07T20:56:07.763Z,5.20
2022-11-07T20:58:36.350Z,4.55
2022-11-07T21:01:07.849Z,3.38
2022-11-07T21:03:35.801Z,5.70
2022-11-07T21:06:04.222Z,5.60
2022-11-07T21:08:36.954Z,4.32
2022-11-07T21:11:03.805Z,6.18
2022-11-07T21:13:30.307Z,6.57
2022-11-07T21:15:57.140Z,5.03
2022-11-07T21:18:24.522Z,4.82
2022-11-07T21:20:51.060Z,5.13
2022-11-07T21:23:18.433Z,3.92
2022-11-07T21:25:46.834Z,6.32
2022-11-07T21:28:17.901Z,3.08
2022-11-07T21:30:45.360Z,2.28
2022-11-07T21:33:12.295Z,3.45
2022-11-07T21:35:42.375Z,3.63
2022-11-07T21:38:09.030Z,4.90
2022-11-07T21:40:36.087Z,7.07
2022-11-07T21:43:02.602Z,4.18
2022-11-07T21:45:29.074Z,4.97
2022-11-07T21:47:55.580Z,3.42
2022-11-07T21:50:43.590Z,6.00
2022-11-07T21:53:08.910Z,4.13
2022-11-07T21:55:35.431Z,4.35
2022-11-07T21:58:02.279Z,3.60
2022-11-07T22:00:33.117Z,4.45
2022-11-07T22:03:02.811Z,3.53
2022-11-07T22:05:29.321Z,2.85
2022-11-07T22:07:55.779Z,3.13
2022-11-07T22:10:22.225Z,4.55
2022-11-07T22:12:50.679Z,6.43
2022-11-07T22:15:17.230Z,5.72
2022-11-07T22:17:43.687Z,3.75
2022-11-07T22:20:10.491Z,5.38
2022-11-07T22:22:36.971Z,2.47
2022-11-07T22:25:03.544Z,4.05
2022-11-07T22:27:30.876Z,3.85
2022-11-07T22:29:57.431Z,5.20
2022-11-07T22:32:24.144Z,5.13
2022-11-07T22:34:50.610Z,3.58
2022-11-07T22:37:17.075Z,4.80
2022-11-07T22:39:43.556Z,5.53
2022-11-07T22:42:10.021Z,3.03
2022-11-07T22:44:36.736Z,3.40
2022-11-07T22:47:03.300Z,4.40
2022-11-07T22:49:29.842Z,5.03
2022-11-07T22:51:56.403Z,5.55
2022-11-07T22:54:22.836Z,6.82
2022-11-07T22:56:49.291Z,4.35
2022-11-07T22:59:15.752Z,3.60
2022-11-07T23:01:43.082Z,5.72
2022-11-07T23:04:12.809Z,3.90
2022-11-07T23:06:39.347Z,7.05
2022-11-07T23:09:05.974Z,3.03
2022-11-07T23:11:46.423Z,3.85
2022-11-07T23:14:15.110Z,3.95
2022-11-07T23:16:45.869Z,3.75
2022-11-07T23:19:13.456Z,3.60
2022-11-07T23:21:39.933Z,4.20
2022-11-07T23:24:06.583Z,3.63
2022-11-07T23:26:35.972Z,4.22
2022-11-07T23:29:10.128Z,4.72
2022-11-07T23:31:37.876Z,4.72
2022-11-07T23:34:04.365Z,4.78
2022-11-07T23:36:30.896Z,3.17
2022-11-07T23:38:57.442Z,3.08
2022-11-07T23:41:23.898Z,3.70
2022-11-07T23:43:52.719Z,4.30
2022-11-07T23:46:37.974Z,4.40
2022-11-07T23:49:22.893Z,4.47
2022-11-07T23:51:49.498Z,4.15
2022-11-07T23:54:34.339Z,3.20
2022-11-07T23:57:00.814Z,3.20
2022-11-07T23:59:45.605Z,2.72
